Time;durP1;ratioP1;P1;durP2;ratioP2;P2;SDS_P1;SDS_P2;PMS_P1;PMS_P2;Temp;Humidity;BMP_temperature;BMP_pressure;BME280_temperature;BME280_humidity;BME280_pressure;Samples;Min_cycle;Max_cycle;Signal;HPM_P1;HPM_P2
2023/08/12 00:00:33;;;;;;;17.50;10.37;;;;;;;;;;5043489;28;20436;-79
2023/08/12 00:02:59;;;;;;;18.17;9.70;;;;;;;;;;5042907;28;20484;-79
2023/08/12 00:05:26;;;;;;;13.80;8.70;;;;;;;;;;5044918;28;20435;-79
2023/08/12 00:07:52;;;;;;;14.93;9.03;;;;;;;;;;5041888;28;20471;-79
2023/08/12 00:10:18;;;;;;;26.70;11.40;;;;;;;;;;5045390;28;20809;-79
2023/08/12 00:12:49;;;;;;;14.80;9.80;;;;;;;;;;5041003;28;20479;-79
2023/08/12 00:15:16;;;;;;;14.10;8.40;;;;;;;;;;5045938;28;20460;-79
2023/08/12 00:17:43;;;;;;;12.70;9.17;;;;;;;;;;5041774;28;20464;-79
2023/08/12 00:20:10;;;;;;;16.23;10.00;;;;;;;;;;5046799;28;20453;-79
2023/08/12 00:22:37;;;;;;;17.13;10.10;;;;;;;;;;5043384;28;20471;-79
2023/08/12 00:25:03;;;;;;;15.87;9.10;;;;;;;;;;5047187;28;20813;-79
2023/08/12 00:27:30;;;;;;;15.63;8.90;;;;;;;;;;5044695;28;20833;-79
2023/08/12 00:29:56;;;;;;;24.57;10.33;;;;;;;;;;5046647;28;20451;-79
2023/08/12 00:32:24;;;;;;;14.33;10.57;;;;;;;;;;5042748;28;20476;-79
2023/08/12 00:34:50;;;;;;;18.63;10.87;;;;;;;;;;5046328;28;20448;-79
2023/08/12 00:37:17;;;;;;;12.20;9.80;;;;;;;;;;5044110;28;20476;-79
2023/08/12 00:39:43;;;;;;;16.00;9.80;;;;;;;;;;5043976;28;20458;-79
2023/08/12 00:42:10;;;;;;;14.40;9.73;;;;;;;;;;5042888;28;20487;-79
2023/08/12 00:44:36;;;;;;;20.20;11.13;;;;;;;;;;5045042;28;20441;-79
2023/08/12 00:47:03;;;;;;;11.83;9.07;;;;;;;;;;5044097;28;20478;-79
2023/08/12 00:49:32;;;;;;;22.27;11.73;;;;;;;;;;5043654;28;20835;-79
2023/08/12 00:51:58;;;;;;;16.50;10.10;;;;;;;;;;5044630;28;20496;-79
2023/08/12 00:54:26;;;;;;;15.30;9.70;;;;;;;;;;5043945;28;20444;-79
2023/08/12 00:56:53;;;;;;;15.50;9.10;;;;;;;;;;5043599;28;20486;-79
2023/08/12 00:59:20;;;;;;;14.67;10.20;;;;;;;;;;5042804;28;21024;-79
2023/08/12 01:01:49;;;;;;;15.60;8.87;;;;;;;;;;5040070;28;20958;-79
2023/08/12 01:04:15;;;;;;;15.00;8.83;;;;;;;;;;5047730;28;20444;-79
2023/08/12 01:06:43;;;;;;;12.43;9.00;;;;;;;;;;5044095;28;20954;-79
2023/08/12 01:09:09;;;;;;;13.90;10.60;;;;;;;;;;5043150;28;20451;-79
2023/08/12 01:11:39;;;;;;;16.50;10.27;;;;;;;;;;5045069;28;20988;-79
2023/08/12 01:14:07;;;;;;;21.00;10.00;;;;;;;;;;5044354;28;20483;-79
2023/08/12 01:16:37;;;;;;;19.10;10.93;;;;;;;;;;5038832;28;20967;-79
2023/08/12 01:19:05;;;;;;;18.00;8.83;;;;;;;;;;5044595;28;20826;-79
2023/08/12 01:21:34;;;;;;;12.20;10.03;;;;;;;;;;5045096;28;20444;-79
2023/08/12 01:24:02;;;;;;;18.53;10.47;;;;;;;;;;5043191;28;20451;-79
2023/08/12 01:26:28;;;;;;;15.23;10.60;;;;;;;;;;5044557;28;20949;-80
2023/08/12 01:28:55;;;;;;;16.47;11.50;;;;;;;;;;5043363;28;20450;-79
2023/08/12 01:31:25;;;;;;;13.77;9.87;;;;;;;;;;5042192;28;20458;-79
2023/08/12 01:33:56;;;;;;;14.10;10.27;;;;;;;;;;5043867;28;20476;-79
2023/08/12 01:36:26;;;;;;;11.70;10.53;;;;;;;;;;5046715;28;20491;-79
2023/08/12 01:38:53;;;;;;;15.60;10.30;;;;;;;;;;5046081;28;20456;-79
2023/08/12 01:41:23;;;;;;;18.83;12.97;;;;;;;;;;5043769;28;20470;-79
2023/08/12 01:43:50;;;;;;;19.23;12.07;;;;;;;;;;5044235;28;20457;-79
2023/08/12 01:46:16;;;;;;;15.07;12.47;;;;;;;;;;5042492;28;20523;-79
2023/08/12 01:48:42;;;;;;;18.37;12.37;;;;;;;;;;5045908;28;20480;-79
2023/08/12 01:51:09;;;;;;;23.13;13.67;;;;;;;;;;5043787;28;20475;-79
2023/08/12 01:53:35;;;;;;;20.70;12.77;;;;;;;;;;5041153;28;20956;-79
2023/08/12 01:56:02;;;;;;;17.70;12.43;;;;;;;;;;5043452;28;20467;-79
2023/08/12 01:58:29;;;;;;;22.10;14.70;;;;;;;;;;5040230;28;20484;-79
2023/08/12 02:00:55;;;;;;;26.23;18.47;;;;;;;;;;5042963;28;20451;-79
2023/08/12 02:03:22;;;;;;;27.90;17.90;;;;;;;;;;5044370;28;20858;-79
2023/08/12 02:05:49;;;;;;;31.83;19.47;;;;;;;;;;5045279;28;20448;-79
2023/08/12 02:08:15;;;;;;;32.57;21.07;;;;;;;;;;5042690;28;20533;-79
2023/08/12 02:10:43;;;;;;;30.07;23.07;;;;;;;;;;5044254;28;20949;-79
2023/08/12 02:13:09;;;;;;;33.07;27.97;;;;;;;;;;5041908;28;20483;-79
2023/08/12 02:15:37;;;;;;;35.23;23.13;;;;;;;;;;5043641;28;20874;-79
2023/08/12 02:18:04;;;;;;;37.20;25.27;;;;;;;;;;5042162;28;20469;-79
2023/08/12 02:20:31;;;;;;;32.40;25.53;;;;;;;;;;5043107;28;20448;-79
2023/08/12 02:22:57;;;;;;;32.80;25.57;;;;;;;;;;5041072;28;20465;-79
2023/08/12 02:25:23;;;;;;;35.33;23.33;;;;;;;;;;5043933;28;20451;-79
2023/08/12 02:27:50;;;;;;;31.60;23.60;;;;;;;;;;5041950;28;20479;-80
2023/08/12 02:30:16;;;;;;;33.97;25.97;;;;;;;;;;5042069;28;20449;-79
2023/08/12 02:32:44;;;;;;;38.60;26.07;;;;;;;;;;5039786;28;20471;-80
2023/08/12 02:35:10;;;;;;;32.90;25.93;;;;;;;;;;5046192;28;20452;-80
2023/08/12 02:37:36;;;;;;;30.67;25.27;;;;;;;;;;5041881;28;20464;-80
2023/08/12 02:40:04;;;;;;;38.57;27.13;;;;;;;;;;5043039;28;20449;-79
2023/08/12 02:42:31;;;;;;;34.70;26.60;;;;;;;;;;5040061;28;20468;-80
2023/08/12 02:44:59;;;;;;;35.20;26.83;;;;;;;;;;5040166;28;20447;-80
2023/08/12 02:47:25;;;;;;;33.97;27.40;;;;;;;;;;5043807;28;20483;-80
2023/08/12 02:49:53;;;;;;;37.80;26.03;;;;;;;;;;5044594;28;20436;-80
2023/08/12 02:52:19;;;;;;;32.97;27.47;;;;;;;;;;5042749;28;20476;-80
2023/08/12 02:54:46;;;;;;;25.70;21.87;;;;;;;;;;5039436;28;20484;-79
2023/08/12 02:57:12;;;;;;;29.43;25.27;;;;;;;;;;5044595;28;20468;-80
2023/08/12 02:59:38;;;;;;;36.97;28.03;;;;;;;;;;5044457;28;20451;-79
2023/08/12 03:02:05;;;;;;;29.33;24.37;;;;;;;;;;5040922;28;20487;-80
2023/08/12 03:04:31;;;;;;;35.03;27.87;;;;;;;;;;5039924;28;20443;-79
2023/08/12 03:06:59;;;;;;;31.67;26.80;;;;;;;;;;5040619;28;20465;-79
2023/08/12 03:09:25;;;;;;;30.30;26.17;;;;;;;;;;5044478;28;20444;-79
2023/08/12 03:11:52;;;;;;;38.10;24.67;;;;;;;;;;5039203;28;20869;-79
2023/08/12 03:14:18;;;;;;;33.20;25.00;;;;;;;;;;5043938;28;20487;-79
2023/08/12 03:16:46;;;;;;;34.87;25.70;;;;;;;;;;5039601;28;20465;-80
2023/08/12 03:19:12;;;;;;;28.10;23.37;;;;;;;;;;5043181;28;20437;-80
2023/08/12 03:21:38;;;;;;;31.83;23.30;;;;;;;;;;5039734;28;20476;-80
2023/08/12 03:24:07;;;;;;;35.30;26.60;;;;;;;;;;5044820;28;20448;-79
2023/08/12 03:26:33;;;;;;;31.60;25.03;;;;;;;;;;5043038;28;20455;-80
2023/08/12 03:28:59;;;;;;;40.80;26.20;;;;;;;;;;5042558;28;20453;-80
2023/08/12 03:31:26;;;;;;;33.23;25.40;;;;;;;;;;5043519;28;20449;-80
2023/08/12 03:33:52;;;;;;;28.30;22.90;;;;;;;;;;5040471;28;20488;-79
2023/08/12 03:36:18;;;;;;;40.10;25.67;;;;;;;;;;5041369;28;20448;-79
2023/08/12 03:38:45;;;;;;;27.07;23.43;;;;;;;;;;5041956;28;20491;-79
2023/08/12 03:41:14;;;;;;;28.00;22.27;;;;;;;;;;5041965;28;20451;-79
2023/08/12 03:43:42;;;;;;;24.60;21.30;;;;;;;;;;5038345;28;20476;-80
2023/08/12 03:46:08;;;;;;;28.40;24.60;;;;;;;;;;5041998;28;20978;-79
2023/08/12 03:48:35;;;;;;;31.83;24.10;;;;;;;;;;5038924;28;20496;-80
2023/08/12 03:51:03;;;;;;;30.20;23.20;;;;;;;;;;5043834;28;20451;-80
2023/08/12 03:53:29;;;;;;;36.53;25.70;;;;;;;;;;5037757;28;20468;-80
2023/08/12 03:55:56;;;;;;;37.73;27.13;;;;;;;;;;5042297;28;20949;-79
2023/08/12 03:58:24;;;;;;;27.20;22.10;;;;;;;;;;5042739;28;20475;-80
2023/08/12 04:00:50;;;;;;;34.00;25.87;;;;;;;;;;5042668;28;20444;-80
2023/08/12 04:03:16;;;;;;;30.10;25.30;;;;;;;;;;5040801;28;20476;-80
2023/08/12 04:05:48;;;;;;;35.40;25.53;;;;;;;;;;5040915;28;21802;-80
2023/08/12 04:08:14;;;;;;;27.90;23.50;;;;;;;;;;5039177;28;20537;-80
2023/08/12 04:10:41;;;;;;;29.00;24.80;;;;;;;;;;5040687;28;20456;-79
2023/08/12 04:13:07;;;;;;;37.93;24.97;;;;;;;;;;5040465;28;20477;-79
2023/08/12 04:15:35;;;;;;;34.77;26.33;;;;;;;;;;5045732;28;20455;-80
2023/08/12 04:18:03;;;;;;;28.23;23.77;;;;;;;;;;5042411;28;21031;-79
2023/08/12 04:20:31;;;;;;;26.90;22.53;;;;;;;;;;5037078;28;20539;-80
2023/08/12 04:22:57;;;;;;;35.20;24.30;;;;;;;;;;5042316;28;20482;-79
2023/08/12 04:25:23;;;;;;;29.57;24.30;;;;;;;;;;5050038;28;21024;-80
2023/08/12 04:27:50;;;;;;;31.97;25.70;;;;;;;;;;5044750;28;20544;-80
2023/08/12 04:30:16;;;;;;;33.40;24.47;;;;;;;;;;5046959;28;20439;-79
2023/08/12 04:32:44;;;;;;;31.30;23.40;;;;;;;;;;5045204;28;20500;-79
2023/08/12 04:35:12;;;;;;;30.93;22.87;;;;;;;;;;5043871;28;20493;-79
2023/08/12 04:37:38;;;;;;;25.73;21.50;;;;;;;;;;5042188;28;20464;-79
2023/08/12 04:40:07;;;;;;;28.80;22.53;;;;;;;;;;5043006;28;20460;-80
2023/08/12 04:42:33;;;;;;;28.27;22.20;;;;;;;;;;5044838;28;20482;-79
2023/08/12 04:44:59;;;;;;;28.73;23.07;;;;;;;;;;5044824;28;20439;-79
2023/08/12 04:47:26;;;;;;;27.07;21.90;;;;;;;;;;5040131;28;21063;-79
2023/08/12 04:49:54;;;;;;;27.17;22.43;;;;;;;;;;5046657;28;20452;-79
2023/08/12 04:52:20;;;;;;;33.90;22.10;;;;;;;;;;5042947;28;20486;-79
2023/08/12 04:54:46;;;;;;;26.87;22.00;;;;;;;;;;5043581;28;20552;-80
2023/08/12 04:57:13;;;;;;;29.23;22.03;;;;;;;;;;5042574;28;20472;-79
2023/08/12 04:59:39;;;;;;;30.03;23.97;;;;;;;;;;5046260;28;20451;-79
2023/08/12 05:02:05;;;;;;;31.43;22.93;;;;;;;;;;5046496;28;20475;-80
2023/08/12 05:04:32;;;;;;;27.73;22.93;;;;;;;;;;5046550;28;20441;-79
2023/08/12 05:07:00;;;;;;;32.47;22.50;;;;;;;;;;5045134;28;20468;-79
2023/08/12 05:09:26;;;;;;;24.47;20.63;;;;;;;;;;5046293;28;20444;-79
2023/08/12 05:11:53;;;;;;;27.70;21.50;;;;;;;;;;5046257;28;20978;-79
2023/08/12 05:14:20;;;;;;;29.67;23.30;;;;;;;;;;5046015;28;20488;-79
2023/08/12 05:16:48;;;;;;;24.37;20.67;;;;;;;;;;5040315;28;20464;-79
2023/08/12 05:19:14;;;;;;;28.90;23.07;;;;;;;;;;5044309;28;20451;-79
2023/08/12 05:21:41;;;;;;;35.13;24.53;;;;;;;;;;5042494;28;20491;-79
2023/08/12 05:24:11;;;;;;;33.60;23.50;;;;;;;;;;5045402;28;20429;-79
2023/08/12 05:26:38;;;;;;;30.50;23.87;;;;;;;;;;5042119;28;20453;-79
2023/08/12 05:29:04;;;;;;;27.50;22.17;;;;;;;;;;5044433;28;20483;-79
2023/08/12 05:31:31;;;;;;;26.70;22.60;;;;;;;;;;5041996;28;20461;-79
2023/08/12 05:33:58;;;;;;;25.53;21.20;;;;;;;;;;5042006;28;20507;-79
2023/08/12 05:36:24;;;;;;;32.50;24.80;;;;;;;;;;5042870;28;20816;-80
2023/08/12 05:38:51;;;;;;;34.77;25.03;;;;;;;;;;5044393;28;20452;-79
2023/08/12 05:41:18;;;;;;;32.80;23.83;;;;;;;;;;5044609;28;20459;-79
2023/08/12 05:43:45;;;;;;;30.97;26.57;;;;;;;;;;5039826;28;20480;-79
2023/08/12 05:46:11;;;;;;;38.40;25.97;;;;;;;;;;5046201;28;20436;-79
2023/08/12 05:48:37;;;;;;;35.30;26.13;;;;;;;;;;5043153;28;20469;-79
2023/08/12 05:51:04;;;;;;;37.60;28.10;;;;;;;;;;5043294;28;20436;-79
2023/08/12 05:53:30;;;;;;;34.00;26.80;;;;;;;;;;5041602;28;20472;-79
2023/08/12 05:55:56;;;;;;;38.43;27.63;;;;;;;;;;5041287;28;20479;-79
2023/08/12 05:58:24;;;;;;;34.70;24.33;;;;;;;;;;5043494;28;20463;-79
2023/08/12 06:00:50;;;;;;;38.17;27.50;;;;;;;;;;5044260;28;20451;-79
2023/08/12 06:03:17;;;;;;;32.87;25.10;;;;;;;;;;5040763;28;20468;-79
2023/08/12 06:05:44;;;;;;;32.60;25.77;;;;;;;;;;5041336;28;20803;-79
2023/08/12 06:08:11;;;;;;;33.93;25.00;;;;;;;;;;5044532;28;20475;-79
2023/08/12 06:10:37;;;;;;;31.70;25.47;;;;;;;;;;5044489;28;20440;-79
2023/08/12 06:13:04;;;;;;;29.20;24.50;;;;;;;;;;5041934;28;20853;-79
2023/08/12 06:15:33;;;;;;;31.70;25.30;;;;;;;;;;5044482;28;21020;-79
2023/08/12 06:17:59;;;;;;;26.47;22.37;;;;;;;;;;5044755;28;20467;-79
2023/08/12 06:20:26;;;;;;;21.70;19.40;;;;;;;;;;5043167;28;20460;-79
2023/08/12 06:22:52;;;;;;;27.13;21.67;;;;;;;;;;5043104;28;20480;-79
2023/08/12 06:25:18;;;;;;;29.27;21.13;;;;;;;;;;5043116;28;20825;-79
2023/08/12 06:27:47;;;;;;;23.20;20.60;;;;;;;;;;5036001;28;20479;-79
2023/08/12 06:30:13;;;;;;;22.37;19.97;;;;;;;;;;5041267;28;21039;-79
2023/08/12 06:32:41;;;;;;;28.20;21.80;;;;;;;;;;5044321;28;20472;-79
2023/08/12 06:35:08;;;;;;;27.30;20.70;;;;;;;;;;5041534;28;20475;-79
2023/08/12 06:37:35;;;;;;;23.57;19.00;;;;;;;;;;5042824;28;20456;-79
2023/08/12 06:40:01;;;;;;;23.00;20.37;;;;;;;;;;5041705;28;20487;-79
2023/08/12 06:42:27;;;;;;;20.60;18.47;;;;;;;;;;5045096;28;20475;-79
2023/08/12 06:44:54;;;;;;;23.10;18.83;;;;;;;;;;5043108;28;20464;-79
2023/08/12 06:47:21;;;;;;;22.37;17.40;;;;;;;;;;5043550;28;20451;-79
2023/08/12 06:49:49;;;;;;;25.03;18.90;;;;;;;;;;5041105;28;20483;-79
2023/08/12 06:52:15;;;;;;;25.00;18.70;;;;;;;;;;5044773;28;20468;-79
2023/08/12 06:54:42;;;;;;;28.00;18.67;;;;;;;;;;5039658;28;20472;-79
2023/08/12 06:57:08;;;;;;;23.17;19.00;;;;;;;;;;5039832;28;20448;-79
2023/08/12 06:59:35;;;;;;;24.03;20.00;;;;;;;;;;5041511;28;20472;-79
2023/08/12 07:02:01;;;;;;;22.70;19.27;;;;;;;;;;5043844;28;21009;-79
2023/08/12 07:04:27;;;;;;;28.43;20.00;;;;;;;;;;5042949;28;20472;-79
2023/08/12 07:06:55;;;;;;;25.17;21.00;;;;;;;;;;5042133;28;20450;-79
2023/08/12 07:09:23;;;;;;;28.77;22.23;;;;;;;;;;5042916;28;20474;-79
2023/08/12 07:11:50;;;;;;;25.23;19.50;;;;;;;;;;5040941;28;20480;-79
2023/08/12 07:14:17;;;;;;;25.37;20.77;;;;;;;;;;5042921;28;20484;-79
2023/08/12 07:16:43;;;;;;;22.47;19.93;;;;;;;;;;5040924;28;20984;-79
2023/08/12 07:19:11;;;;;;;23.90;20.37;;;;;;;;;;5039312;28;20889;-79
2023/08/12 07:21:37;;;;;;;24.17;21.53;;;;;;;;;;5040327;28;20468;-79
2023/08/12 07:24:06;;;;;;;26.00;20.90;;;;;;;;;;5044504;28;20851;-79
2023/08/12 07:26:32;;;;;;;21.97;19.70;;;;;;;;;;5043346;28;20448;-79
2023/08/12 07:28:58;;;;;;;21.83;19.43;;;;;;;;;;5038042;28;20487;-79
2023/08/12 07:31:25;;;;;;;22.80;20.13;;;;;;;;;;5042769;28;20443;-79
2023/08/12 07:33:51;;;;;;;22.60;19.00;;;;;;;;;;5042901;28;21006;-79
2023/08/12 07:36:18;;;;;;;30.10;21.20;;;;;;;;;;5041726;28;20479;-79
2023/08/12 07:38:44;;;;;;;21.00;17.90;;;;;;;;;;5037468;28;21001;-79
2023/08/12 07:41:12;;;;;;;20.23;18.03;;;;;;;;;;5042631;28;20454;-79
2023/08/12 07:43:38;;;;;;;20.40;17.93;;;;;;;;;;5042229;28;20850;-79
2023/08/12 07:46:05;;;;;;;18.53;16.47;;;;;;;;;;5040893;28;20447;-79
2023/08/12 07:48:31;;;;;;;16.80;14.90;;;;;;;;;;5042760;28;20830;-79
2023/08/12 07:50:59;;;;;;;20.60;17.83;;;;;;;;;;5045658;28;20988;-80
2023/08/12 07:53:27;;;;;;;21.20;17.83;;;;;;;;;;5042516;28;20475;-79
2023/08/12 07:55:53;;;;;;;17.97;16.03;;;;;;;;;;5041339;28;20476;-79
2023/08/12 07:58:21;;;;;;;18.50;14.73;;;;;;;;;;5045963;28;20475;-79
2023/08/12 08:00:47;;;;;;;16.27;14.57;;;;;;;;;;5047123;28;20934;-79
2023/08/12 08:03:13;;;;;;;15.57;13.97;;;;;;;;;;5044506;28;20463;-79
2023/08/12 08:05:40;;;;;;;14.40;12.53;;;;;;;;;;5048552;28;20440;-79
2023/08/12 08:08:07;;;;;;;15.17;12.90;;;;;;;;;;5044566;28;20506;-79
2023/08/12 08:10:33;;;;;;;15.37;12.80;;;;;;;;;;5043947;28;20435;-79
2023/08/12 08:13:00;;;;;;;13.13;11.83;;;;;;;;;;5044178;28;20480;-80
2023/08/12 08:15:28;;;;;;;14.63;13.00;;;;;;;;;;5046603;28;20483;-79
2023/08/12 08:17:56;;;;;;;19.03;13.20;;;;;;;;;;5045297;28;20455;-79
2023/08/12 08:20:23;;;;;;;17.10;13.87;;;;;;;;;;5044795;28;20452;-79
2023/08/12 08:22:51;;;;;;;14.97;13.20;;;;;;;;;;5047081;28;20460;-79
2023/08/12 08:25:18;;;;;;;16.40;12.60;;;;;;;;;;5042732;28;21005;-79
2023/08/12 08:27:44;;;;;;;14.70;12.27;;;;;;;;;;5045094;28;20456;-79
2023/08/12 08:30:11;;;;;;;16.80;11.87;;;;;;;;;;5046543;28;20475;-79
2023/08/12 08:32:38;;;;;;;14.40;12.90;;;;;;;;;;5043126;28;20471;-79
2023/08/12 08:35:05;;;;;;;14.53;11.57;;;;;;;;;;5039427;28;20481;-79
2023/08/12 08:37:31;;;;;;;17.77;11.27;;;;;;;;;;5042621;28;20452;-79
2023/08/12 08:39:58;;;;;;;14.37;12.90;;;;;;;;;;5043540;28;21368;-79
2023/08/12 08:42:25;;;;;;;15.20;12.80;;;;;;;;;;5044388;28;20467;-79
2023/08/12 08:44:53;;;;;;;13.57;10.17;;;;;;;;;;5045314;28;20989;-79
2023/08/12 08:47:20;;;;;;;13.63;10.50;;;;;;;;;;5044476;28;20950;-79
2023/08/12 08:49:48;;;;;;;12.53;11.10;;;;;;;;;;5045122;28;20985;-79
2023/08/12 08:52:15;;;;;;;13.30;10.40;;;;;;;;;;5046484;28;20475;-79
2023/08/12 08:54:41;;;;;;;9.57;8.60;;;;;;;;;;5043340;28;20479;-79
2023/08/12 08:57:10;;;;;;;10.50;8.97;;;;;;;;;;5045156;28;20456;-79
2023/08/12 08:59:38;;;;;;;9.70;8.07;;;;;;;;;;5040522;28;20559;-79
2023/08/12 09:02:05;;;;;;;9.03;8.13;;;;;;;;;;5042992;28;20469;-79
2023/08/12 09:04:32;;;;;;;11.70;9.83;;;;;;;;;;5042376;28;20554;-79
2023/08/12 09:07:01;;;;;;;12.33;9.47;;;;;;;;;;5044716;28;20456;-79
2023/08/12 09:09:30;;;;;;;13.37;10.90;;;;;;;;;;5045266;28;20463;-79
2023/08/12 09:11:57;;;;;;;15.77;12.10;;;;;;;;;;5040445;28;20840;-79
2023/08/12 09:14:23;;;;;;;14.90;11.80;;;;;;;;;;5042104;28;20985;-79
2023/08/12 09:16:50;;;;;;;14.37;12.17;;;;;;;;;;5045066;28;20487;-79
2023/08/12 09:19:16;;;;;;;12.73;11.43;;;;;;;;;;5047940;28;20472;-79
2023/08/12 09:21:43;;;;;;;16.20;14.50;;;;;;;;;;5047073;28;20464;-79
2023/08/12 09:24:10;;;;;;;16.90;14.17;;;;;;;;;;5044339;28;20472;-79
2023/08/12 09:26:38;;;;;;;19.07;15.70;;;;;;;;;;5046426;28;20464;-79
2023/08/12 09:29:06;;;;;;;14.67;13.03;;;;;;;;;;5043333;28;20492;-79
2023/08/12 09:31:33;;;;;;;18.50;15.53;;;;;;;;;;5046538;28;20440;-79
2023/08/12 09:34:00;;;;;;;23.67;15.57;;;;;;;;;;5041628;28;20479;-79
2023/08/12 09:36:28;;;;;;;23.20;15.13;;;;;;;;;;5048078;28;20484;-79
2023/08/12 09:38:54;;;;;;;16.03;14.40;;;;;;;;;;5039853;28;20507;-79
2023/08/12 09:41:23;;;;;;;17.10;14.40;;;;;;;;;;5045546;28;20436;-79
2023/08/12 09:43:51;;;;;;;19.17;15.00;;;;;;;;;;5041356;28;20475;-79
2023/08/12 09:46:18;;;;;;;19.10;15.90;;;;;;;;;;5043475;28;20460;-79
2023/08/12 09:48:44;;;;;;;18.87;16.90;;;;;;;;;;5046813;28;20850;-79
2023/08/12 09:51:11;;;;;;;18.07;16.00;;;;;;;;;;5046271;28;20448;-79
2023/08/12 09:53:37;;;;;;;18.13;16.13;;;;;;;;;;5045304;28;20506;-79
2023/08/12 09:56:08;;;;;;;19.90;17.33;;;;;;;;;;5044392;28;20479;-79
2023/08/12 09:58:37;;;;;;;23.90;20.37;;;;;;;;;;5043570;28;20472;-80
2023/08/12 10:01:04;;;;;;;32.60;23.40;;;;;;;;;;5042655;28;20479;-79
2023/08/12 10:03:31;;;;;;;25.77;22.30;;;;;;;;;;5043716;28;20523;-80
2023/08/12 10:05:58;;;;;;;28.80;25.60;;;;;;;;;;5047667;28;20467;-79
2023/08/12 10:08:25;;;;;;;30.00;26.80;;;;;;;;;;5045745;28;20987;-79
2023/08/12 10:10:52;;;;;;;26.90;24.20;;;;;;;;;;5045183;28;20459;-80
2023/08/12 10:13:19;;;;;;;30.43;26.87;;;;;;;;;;5042106;28;20879;-79
2023/08/12 10:15:46;;;;;;;31.90;28.10;;;;;;;;;;5044667;28;20862;-79
2023/08/12 10:18:14;;;;;;;33.73;27.87;;;;;;;;;;5041027;28;20459;-79
2023/08/12 10:20:41;;;;;;;30.57;27.13;;;;;;;;;;5041442;28;20458;-79
2023/08/12 10:23:09;;;;;;;32.40;28.97;;;;;;;;;;5045664;28;20970;-79
2023/08/12 10:25:38;;;;;;;31.83;28.40;;;;;;;;;;5044952;28;20800;-79
2023/08/12 10:28:05;;;;;;;30.37;27.10;;;;;;;;;;5041558;28;20972;-80
2023/08/12 10:30:31;;;;;;;32.27;27.67;;;;;;;;;;5045961;28;20467;-79
2023/08/12 10:33:00;;;;;;;38.27;31.43;;;;;;;;;;5040556;28;20858;-79
2023/08/12 10:35:41;;;;;;;36.23;29.77;;;;;;;;;;5044135;28;20484;-79
2023/08/12 10:38:07;;;;;;;29.70;25.83;;;;;;;;;;5041896;28;20444;-79
2023/08/12 10:40:33;;;;;;;32.10;28.70;;;;;;;;;;5042478;28;20543;-79
2023/08/12 10:43:00;;;;;;;38.03;32.30;;;;;;;;;;5043691;28;20468;-79
2023/08/12 10:45:41;;;;;;;34.10;30.43;;;;;;;;;;5045312;28;20969;-79
2023/08/12 10:48:18;;;;;;;32.03;28.77;;;;;;;;;;5044779;28;20440;-79
2023/08/12 10:50:45;;;;;;;28.20;24.93;;;;;;;;;;5043328;28;20436;-79
2023/08/12 10:53:21;;;;;;;35.10;29.00;;;;;;;;;;5041076;28;20460;-79
2023/08/12 10:55:50;;;;;;;28.27;25.27;;;;;;;;;;5041983;28;20868;-79
2023/08/12 10:58:25;;;;;;;27.73;24.77;;;;;;;;;;5042141;28;20460;-79
2023/08/12 11:00:54;;;;;;;28.00;23.93;;;;;;;;;;5042514;28;20445;-79
2023/08/12 11:03:22;;;;;;;28.07;25.17;;;;;;;;;;5043201;28;20469;-79
2023/08/12 11:05:48;;;;;;;25.00;21.37;;;;;;;;;;5042880;28;20926;-79
2023/08/12 11:08:14;;;;;;;25.47;22.77;;;;;;;;;;5039137;28;20471;-79
2023/08/12 11:10:43;;;;;;;25.37;22.63;;;;;;;;;;5042641;28;20461;-79
2023/08/12 11:13:10;;;;;;;28.57;25.50;;;;;;;;;;5042252;28;20892;-79
2023/08/12 11:15:38;;;;;;;29.60;24.23;;;;;;;;;;5040441;28;20498;-79
2023/08/12 11:18:05;;;;;;;30.87;25.60;;;;;;;;;;5042667;28;20492;-79
2023/08/12 11:20:34;;;;;;;32.10;27.50;;;;;;;;;;5042607;28;20460;-79
2023/08/12 11:23:00;;;;;;;30.07;26.90;;;;;;;;;;5040664;28;20568;-79
2023/08/12 11:25:29;;;;;;;30.67;27.43;;;;;;;;;;5044591;28;20448;-79
2023/08/12 11:27:56;;;;;;;35.03;29.20;;;;;;;;;;5040441;28;20460;-79
2023/08/12 11:30:23;;;;;;;35.20;31.40;;;;;;;;;;5042048;28;20449;-79
2023/08/12 11:32:50;;;;;;;35.80;31.03;;;;;;;;;;5044520;28;20526;-79
2023/08/12 11:35:18;;;;;;;35.47;31.83;;;;;;;;;;5041696;28;20515;-79
2023/08/12 11:37:47;;;;;;;45.53;34.40;;;;;;;;;;5047389;28;20479;-79
2023/08/12 11:40:15;;;;;;;41.13;35.77;;;;;;;;;;5043485;28;20469;-79
2023/08/12 11:42:43;;;;;;;38.87;34.47;;;;;;;;;;5043810;28;20853;-79
2023/08/12 11:45:10;;;;;;;40.20;35.90;;;;;;;;;;5046017;28;20482;-79
2023/08/12 11:47:37;;;;;;;40.90;34.30;;;;;;;;;;5045488;28;20532;-79
2023/08/12 11:50:04;;;;;;;38.80;34.70;;;;;;;;;;5044787;28;20844;-79
2023/08/12 11:52:30;;;;;;;43.60;37.30;;;;;;;;;;5045191;28;20558;-79
2023/08/12 11:54:58;;;;;;;45.77;36.93;;;;;;;;;;5044908;28;20471;-79
2023/08/12 11:57:27;;;;;;;40.63;36.27;;;;;;;;;;5044536;28;20476;-79
2023/08/12 11:59:54;;;;;;;44.03;39.50;;;;;;;;;;5043433;28;20464;-79
2023/08/12 12:02:21;;;;;;;42.07;34.67;;;;;;;;;;5046504;28;20813;-79
2023/08/12 12:04:47;;;;;;;42.57;38.27;;;;;;;;;;5043708;28;20479;-79
2023/08/12 12:07:21;;;;;;;42.73;35.30;;;;;;;;;;5047672;28;20456;-79
2023/08/12 12:09:47;;;;;;;35.33;31.40;;;;;;;;;;5044590;28;20468;-79
2023/08/12 12:12:15;;;;;;;37.33;33.17;;;;;;;;;;5048015;28;20842;-79
2023/08/12 12:14:41;;;;;;;36.23;32.07;;;;;;;;;;5042909;28;20982;-80
2023/08/12 12:17:08;;;;;;;37.03;33.20;;;;;;;;;;5045567;28;20476;-79
2023/08/12 12:19:35;;;;;;;34.53;31.03;;;;;;;;;;5046130;28;20471;-79
2023/08/12 12:22:03;;;;;;;33.03;29.53;;;;;;;;;;5045198;28;20472;-79
2023/08/12 12:24:30;;;;;;;33.73;30.03;;;;;;;;;;5047183;28;21000;-79
2023/08/12 12:26:57;;;;;;;31.80;28.60;;;;;;;;;;5047887;28;20444;-80
2023/08/12 12:29:24;;;;;;;32.23;28.83;;;;;;;;;;5044075;28;20486;-80
2023/08/12 12:31:51;;;;;;;28.70;25.70;;;;;;;;;;5044718;28;20471;-79
2023/08/12 12:34:17;;;;;;;28.13;25.20;;;;;;;;;;5048240;28;20467;-80
2023/08/12 12:36:44;;;;;;;23.70;21.30;;;;;;;;;;5043697;28;20570;-79
2023/08/12 12:39:10;;;;;;;24.00;21.60;;;;;;;;;;5044531;28;20471;-79
2023/08/12 12:41:36;;;;;;;25.37;22.73;;;;;;;;;;5044536;28;20450;-79
2023/08/12 12:44:03;;;;;;;23.97;21.60;;;;;;;;;;5045665;28;20476;-80
2023/08/12 12:46:31;;;;;;;24.23;21.77;;;;;;;;;;5045222;28;20448;-79
2023/08/12 12:48:57;;;;;;;25.07;22.57;;;;;;;;;;5044733;28;20479;-79
2023/08/12 12:51:24;;;;;;;24.13;21.60;;;;;;;;;;5025814;28;20448;-80
2023/08/12 12:53:50;;;;;;;23.80;21.50;;;;;;;;;;5044261;28;20849;-79
2023/08/12 12:56:16;;;;;;;19.90;18.00;;;;;;;;;;5043936;28;20480;-80
2023/08/12 12:58:43;;;;;;;20.07;18.27;;;;;;;;;;5045198;28;20472;-80
2023/08/12 13:01:09;;;;;;;18.93;17.20;;;;;;;;;;5043501;28;20477;-82
2023/08/12 13:03:37;;;;;;;18.20;16.57;;;;;;;;;;5043694;28;20476;-80
2023/08/12 13:06:03;;;;;;;20.30;17.80;;;;;;;;;;5042306;28;20829;-79
2023/08/12 13:08:31;;;;;;;21.30;19.30;;;;;;;;;;5043553;28;20469;-80
2023/08/12 13:10:58;;;;;;;15.97;14.50;;;;;;;;;;5044177;28;20486;-80
2023/08/12 13:13:25;;;;;;;12.00;10.97;;;;;;;;;;5043038;28;20469;-80
2023/08/12 13:15:51;;;;;;;12.77;11.67;;;;;;;;;;5044834;28;20448;-80
2023/08/12 13:18:18;;;;;;;12.80;11.50;;;;;;;;;;5041177;28;20523;-80
2023/08/12 13:20:45;;;;;;;12.07;10.73;;;;;;;;;;5046107;28;20496;-79
2023/08/12 13:23:12;;;;;;;10.27;9.33;;;;;;;;;;5039090;28;20468;-79
2023/08/12 13:25:38;;;;;;;10.50;9.70;;;;;;;;;;5043137;28;20511;-79
2023/08/12 13:28:06;;;;;;;10.17;9.17;;;;;;;;;;5042939;28;20463;-79
2023/08/12 13:30:33;;;;;;;10.80;9.87;;;;;;;;;;5043619;28;20835;-79
2023/08/12 13:32:59;;;;;;;10.23;8.83;;;;;;;;;;5044729;28;20463;-79
2023/08/12 13:35:25;;;;;;;14.23;9.77;;;;;;;;;;5047344;28;20535;-79
2023/08/12 13:37:53;;;;;;;9.43;8.20;;;;;;;;;;5041760;28;20484;-79
2023/08/12 13:40:20;;;;;;;9.83;8.73;;;;;;;;;;5058503;28;20513;-79
2023/08/12 13:42:47;;;;;;;8.17;7.30;;;;;;;;;;5044647;28;21006;-80
2023/08/12 13:45:13;;;;;;;10.57;9.50;;;;;;;;;;5040302;28;20552;-79
2023/08/12 13:47:40;;;;;;;10.80;9.80;;;;;;;;;;5046067;28;20444;-79
2023/08/12 13:50:07;;;;;;;7.90;7.23;;;;;;;;;;5044334;28;20476;-79
2023/08/12 13:52:34;;;;;;;9.27;8.47;;;;;;;;;;5042511;28;20464;-79
2023/08/12 13:55:01;;;;;;;9.20;8.40;;;;;;;;;;5042045;28;20994;-79
2023/08/12 13:57:28;;;;;;;9.03;7.97;;;;;;;;;;5042607;28;20487;-79
2023/08/12 13:59:54;;;;;;;9.83;8.93;;;;;;;;;;5043462;28;20463;-79
2023/08/12 14:02:21;;;;;;;8.30;7.60;;;;;;;;;;5044647;28;20471;-79
2023/08/12 14:04:47;;;;;;;8.17;7.37;;;;;;;;;;5042175;28;20507;-79
2023/08/12 14:07:13;;;;;;;3.30;3.00;;;;;;;;;;5041941;28;20460;-79
2023/08/12 14:09:40;;;;;;;2.00;1.90;;;;;;;;;;5045218;28;20471;-79
2023/08/12 14:12:08;;;;;;;1.07;0.97;;;;;;;;;;5044825;28;20476;-79
2023/08/12 14:14:34;;;;;;;0.87;0.87;;;;;;;;;;5042597;28;20476;-79
2023/08/12 14:17:01;;;;;;;0.70;0.50;;;;;;;;;;5043373;28;20486;-79